Time;durP1;ratioP1;P1;durP2;ratioP2;P2;SDS_P1;SDS_P2;PMS_P1;PMS_P2;Temp;Humidity;BMP_temperature;BMP_pressure;BME280_temperature;BME280_humidity;BME280_pressure;Samples;Min_cycle;Max_cycle;Signal;HPM_P1;HPM_P2
2022/09/22 00:01:03;;;;;;;9.05;6.38;;;10.80;99.90;;;;;;5033282;28;20044;-85
2022/09/22 00:03:43;;;;;;;7.28;6.57;;;10.80;99.90;;;;;;5015549;28;20021;-87
2022/09/22 00:06:18;;;;;;;8.25;6.35;;;10.70;99.90;;;;;;5015632;28;20025;-86
2022/09/22 00:08:47;;;;;;;10.32;7.10;;;10.80;99.90;;;;;;5010846;28;20475;-86
2022/09/22 00:11:16;;;;;;;8.23;6.57;;;10.70;99.90;;;;;;5031991;28;20033;-90
2022/09/22 00:13:50;;;;;;;8.70;6.57;;;10.80;99.90;;;;;;5042598;28;20022;-88
2022/09/22 00:16:18;;;;;;;10.95;6.55;;;10.80;99.90;;;;;;5052622;28;20029;-88
2022/09/22 00:18:44;;;;;;;6.80;6.18;;;10.80;99.90;;;;;;5029142;28;20017;-86
2022/09/22 00:21:13;;;;;;;10.52;7.13;;;10.80;99.90;;;;;;5036282;28;20032;-88
2022/09/22 00:23:40;;;;;;;7.97;6.43;;;10.90;99.90;;;;;;5051023;28;20147;-86
2022/09/22 00:26:09;;;;;;;9.93;7.13;;;10.90;99.90;;;;;;5009708;28;20038;-87
2022/09/22 00:28:37;;;;;;;8.98;7.30;;;10.90;99.90;;;;;;5008719;28;20031;-87
2022/09/22 00:31:10;;;;;;;8.25;7.32;;;10.90;99.90;;;;;;5009546;28;20043;-86
2022/09/22 00:33:37;;;;;;;7.38;6.57;;;10.90;99.90;;;;;;5004658;28;20037;-87
2022/09/22 00:36:04;;;;;;;10.15;7.63;;;10.90;99.90;;;;;;5019372;28;20042;-87
2022/09/22 00:38:30;;;;;;;9.57;7.77;;;10.90;99.90;;;;;;4996230;28;20084;-87
2022/09/22 00:40:56;;;;;;;7.15;6.32;;;10.90;99.90;;;;;;4991852;28;20409;-88
2022/09/22 00:43:27;;;;;;;9.05;8.15;;;10.90;99.90;;;;;;4975982;28;20042;-86
2022/09/22 00:46:11;;;;;;;9.65;7.53;;;10.90;99.90;;;;;;4991543;28;20056;-86
2022/09/22 00:48:43;;;;;;;9.02;8.10;;;10.90;99.90;;;;;;4982002;28;20045;-88
2022/09/22 00:51:12;;;;;;;11.02;8.30;;;10.90;99.90;;;;;;4994145;28;20106;-86
2022/09/22 00:53:38;;;;;;;10.05;8.25;;;11.00;99.90;;;;;;4992793;28;20057;-86
2022/09/22 00:56:09;;;;;;;10.65;9.18;;;11.00;99.90;;;;;;5010541;28;20031;-87
2022/09/22 00:58:41;;;;;;;10.73;8.98;;;11.10;99.90;;;;;;5013613;28;20094;-87
2022/09/22 01:01:08;;;;;;;10.55;9.40;;;11.10;99.90;;;;;;5013581;28;20106;-86
2022/09/22 01:03:36;;;;;;;9.10;8.20;;;11.10;99.90;;;;;;5012814;28;20025;-86
2022/09/22 01:06:05;;;;;;;11.02;8.95;;;11.10;99.90;;;;;;5012967;28;20030;-86
2022/09/22 01:08:33;;;;;;;10.00;8.48;;;11.10;99.90;;;;;;5012049;28;20073;-87
2022/09/22 01:10:59;;;;;;;11.30;9.00;;;11.00;99.90;;;;;;5014045;28;20033;-85
2022/09/22 01:13:50;;;;;;;13.23;10.30;;;11.10;99.90;;;;;;5013910;28;20032;-88
2022/09/22 01:16:40;;;;;;;12.02;10.77;;;11.10;99.90;;;;;;5027901;28;20036;-86
2022/09/22 01:19:36;;;;;;;12.68;10.38;;;11.10;99.90;;;;;;5008394;28;20030;-86
2022/09/22 01:22:29;;;;;;;12.40;10.07;;;11.10;99.90;;;;;;5010924;28;20476;-86
2022/09/22 01:24:59;;;;;;;10.95;9.85;;;11.10;99.90;;;;;;5014748;28;20419;-85
2022/09/22 01:27:40;;;;;;;11.27;9.88;;;11.10;99.90;;;;;;5013871;28;20029;-85
2022/09/22 01:30:22;;;;;;;11.70;10.13;;;11.10;99.90;;;;;;5030615;28;20037;-86
2022/09/22 01:33:04;;;;;;;12.05;9.82;;;11.10;99.90;;;;;;5025741;28;20029;-85
2022/09/22 01:35:50;;;;;;;12.40;9.75;;;11.00;99.90;;;;;;5028804;28;20081;-86
2022/09/22 01:38:35;;;;;;;12.00;9.80;;;11.00;99.90;;;;;;5016306;28;20045;-84
2022/09/22 01:41:04;;;;;;;15.13;11.27;;;11.00;99.90;;;;;;5030867;28;20099;-84
2022/09/22 01:43:52;;;;;;;12.90;9.77;;;11.00;99.90;;;;;;5037309;28;20052;-84
2022/09/22 01:46:39;;;;;;;11.57;10.40;;;11.00;99.90;;;;;;5035221;28;20029;-84
2022/09/22 01:49:08;;;;;;;13.57;10.77;;;11.00;99.90;;;;;;5038298;28;20022;-85
2022/09/22 01:51:48;;;;;;;12.77;9.60;;;11.00;99.90;;;;;;5011642;28;20087;-83
2022/09/22 01:54:21;;;;;;;12.57;9.50;;;11.00;99.90;;;;;;5037739;28;20091;-84
2022/09/22 01:56:54;;;;;;;11.65;10.32;;;11.00;99.90;;;;;;5036424;28;20026;-84
2022/09/22 01:59:23;;;;;;;11.95;10.32;;;11.10;99.90;;;;;;5030286;28;20071;-84
2022/09/22 02:02:01;;;;;;;13.13;9.70;;;11.10;99.90;;;;;;5035334;28;20447;-85
2022/09/22 02:04:36;;;;;;;12.80;10.48;;;11.10;99.90;;;;;;5029676;28;20538;-85
2022/09/22 02:07:10;;;;;;;12.13;10.02;;;11.20;99.90;;;;;;5036126;28;20044;-85
2022/09/22 02:09:40;;;;;;;12.05;10.13;;;11.20;99.90;;;;;;5034823;28;20030;-84
2022/09/22 02:12:06;;;;;;;12.00;9.88;;;11.20;99.90;;;;;;5035149;28;20033;-86
2022/09/22 02:14:32;;;;;;;12.77;11.07;;;11.20;99.90;;;;;;5031657;28;20120;-85
2022/09/22 02:16:59;;;;;;;15.52;11.13;;;11.20;99.90;;;;;;5026975;28;20101;-85
2022/09/22 02:19:32;;;;;;;11.00;9.60;;;11.20;99.90;;;;;;5048007;28;20017;-83
2022/09/22 02:21:59;;;;;;;12.40;10.02;;;11.20;99.90;;;;;;5034809;28;20033;-84
2022/09/22 02:24:30;;;;;;;13.68;10.85;;;11.10;99.90;;;;;;5016826;28;20041;-85
2022/09/22 02:26:59;;;;;;;11.63;9.60;;;11.10;99.90;;;;;;5034431;28;20075;-84
2022/09/22 02:29:31;;;;;;;14.73;11.25;;;11.10;99.90;;;;;;5034770;28;20025;-85
2022/09/22 02:32:00;;;;;;;19.70;12.18;;;11.10;99.90;;;;;;5056070;28;20095;-84
2022/09/22 02:34:27;;;;;;;14.27;11.40;;;11.10;99.90;;;;;;5035092;28;20477;-84
2022/09/22 02:36:55;;;;;;;15.57;12.00;;;11.10;99.90;;;;;;5034318;28;20422;-84
2022/09/22 02:39:33;;;;;;;14.80;12.57;;;11.10;99.90;;;;;;5033783;28;20027;-85
2022/09/22 02:42:29;;;;;;;17.20;12.52;;;11.10;99.90;;;;;;5033936;28;20048;-85
2022/09/22 02:45:18;;;;;;;16.30;12.97;;;11.10;99.90;;;;;;5024560;28;20108;-84
2022/09/22 02:48:00;;;;;;;13.60;12.18;;;11.00;99.90;;;;;;5033853;28;20637;-86
2022/09/22 02:50:28;;;;;;;19.00;15.13;;;11.00;99.90;;;;;;5034626;28;20033;-87
2022/09/22 02:53:13;;;;;;;;;;;11.10;99.90;;;;;;5034973;28;20017;-89
2022/09/22 02:55:40;;;;;;;20.02;14.32;;;11.10;99.90;;;;;;5041617;28;19905;-87
2022/09/22 02:58:06;;;;;;;18.27;14.82;;;11.10;99.90;;;;;;5033856;28;20568;-85
2022/09/22 03:00:32;;;;;;;22.95;17.05;;;11.10;99.90;;;;;;5033893;28;20104;-86
2022/09/22 03:02:58;;;;;;;18.35;14.98;;;11.10;99.90;;;;;;5033690;28;20067;-85
2022/09/22 03:05:24;;;;;;;20.17;16.83;;;11.10;99.90;;;;;;5016118;28;20072;-86
2022/09/22 03:07:50;;;;;;;20.42;16.83;;;11.00;99.90;;;;;;5026965;28;20149;-83
2022/09/22 03:10:15;;;;;;;22.15;18.35;;;11.00;99.90;;;;;;5016117;28;20487;-85
2022/09/22 03:12:42;;;;;;;22.08;18.80;;;11.00;99.90;;;;;;5034329;28;20421;-85
2022/09/22 03:15:13;;;;;;;22.73;16.97;;;10.90;99.90;;;;;;5033202;28;20022;-87
2022/09/22 03:17:40;;;;;;;20.70;17.35;;;10.90;99.90;;;;;;5033982;28;20479;-85
2022/09/22 03:20:09;;;;;;;22.42;17.02;;;10.90;99.90;;;;;;5034091;28;20036;-85
2022/09/22 03:22:35;;;;;;;25.55;19.75;;;10.90;99.90;;;;;;5039050;28;20025;-87
2022/09/22 03:25:01;;;;;;;22.90;19.15;;;10.90;99.90;;;;;;5035448;28;20022;-86
2022/09/22 03:27:27;;;;;;;25.05;20.58;;;11.00;99.90;;;;;;5016729;28;20019;-88
2022/09/22 03:29:54;;;;;;;27.77;20.92;;;11.00;99.90;;;;;;5034813;28;20021;-85
2022/09/22 03:32:21;;;;;;;23.00;19.97;;;11.00;99.90;;;;;;5034162;28;20035;-83
2022/09/22 03:34:47;;;;;;;26.20;20.00;;;11.10;99.90;;;;;;5036648;28;20092;-83
2022/09/22 03:37:14;;;;;;;25.30;20.55;;;11.10;99.90;;;;;;5034809;28;20036;-83
2022/09/22 03:39:40;;;;;;;24.20;20.77;;;11.00;99.90;;;;;;5042181;28;20028;-85
2022/09/22 03:42:06;;;;;;;25.70;20.42;;;11.10;99.90;;;;;;5042519;28;20282;-84
2022/09/22 03:44:32;;;;;;;27.05;21.13;;;11.10;99.90;;;;;;5034249;28;20036;-84
2022/09/22 03:46:59;;;;;;;26.50;21.85;;;11.10;99.90;;;;;;5034897;28;20144;-85
2022/09/22 03:49:25;;;;;;;26.95;21.77;;;11.10;99.90;;;;;;5038050;28;20041;-86
2022/09/22 03:51:52;;;;;;;25.80;21.85;;;11.20;99.90;;;;;;5036108;28;20037;-85
2022/09/22 03:54:18;;;;;;;29.52;22.98;;;11.20;99.90;;;;;;5035031;28;20320;-83
2022/09/22 03:56:44;;;;;;;25.38;22.65;;;11.20;99.90;;;;;;5034203;28;20503;-84
2022/09/22 03:59:10;;;;;;;24.60;20.92;;;11.30;99.90;;;;;;5031260;28;20097;-84
2022/09/22 04:01:36;;;;;;;28.00;21.35;;;11.20;99.90;;;;;;5035937;28;20475;-84
2022/09/22 04:04:03;;;;;;;28.70;23.40;;;11.10;99.90;;;;;;5037948;28;20080;-87
2022/09/22 04:06:29;;;;;;;27.48;22.25;;;11.10;99.90;;;;;;5052748;28;20479;-86
2022/09/22 04:08:55;;;;;;;21.50;18.67;;;11.10;99.90;;;;;;5034785;28;20030;-86
2022/09/22 04:11:22;;;;;;;24.65;18.33;;;11.20;99.90;;;;;;5014316;28;20640;-85
2022/09/22 04:13:48;;;;;;;21.63;17.80;;;11.20;99.90;;;;;;5033609;28;20017;-86
2022/09/22 04:16:14;;;;;;;20.42;16.83;;;11.20;99.90;;;;;;5034341;28;20052;-85
2022/09/22 04:18:39;;;;;;;20.00;17.60;;;11.20;99.90;;;;;;5034268;28;20025;-86
2022/09/22 04:21:06;;;;;;;22.08;17.90;;;11.30;99.90;;;;;;5015367;28;20029;-87
2022/09/22 04:23:32;;;;;;;22.05;19.67;;;11.20;99.90;;;;;;5031774;28;20844;-86
2022/09/22 04:25:58;;;;;;;22.00;17.08;;;11.30;99.90;;;;;;5014815;28;20029;-85
2022/09/22 04:28:24;;;;;;;23.50;18.80;;;11.30;99.90;;;;;;5034021;28;20017;-85
2022/09/22 04:30:50;;;;;;;21.48;17.35;;;11.20;99.90;;;;;;5033358;28;20029;-86
2022/09/22 04:33:16;;;;;;;21.48;19.17;;;11.30;99.90;;;;;;5017140;28;20376;-84
2022/09/22 04:35:42;;;;;;;22.60;18.10;;;11.30;99.90;;;;;;5033844;28;20139;-85
2022/09/22 04:38:09;;;;;;;22.42;17.55;;;11.30;99.90;;;;;;5036220;28;20055;-87
2022/09/22 04:40:36;;;;;;;24.08;20.02;;;11.40;99.90;;;;;;5030444;28;20045;-85
2022/09/22 04:43:02;;;;;;;21.15;18.00;;;11.40;99.90;;;;;;5013422;28;20033;-86
2022/09/22 04:45:28;;;;;;;24.73;18.83;;;11.40;99.90;;;;;;5012092;28;20029;-84
2022/09/22 04:47:54;;;;;;;21.92;17.45;;;11.50;99.90;;;;;;5012527;28;20022;-86
2022/09/22 04:50:21;;;;;;;22.08;17.13;;;11.40;99.90;;;;;;5014961;28;20534;-84
2022/09/22 04:52:50;;;;;;;23.85;18.30;;;11.50;99.90;;;;;;5015540;28;20113;-86
2022/09/22 04:55:16;;;;;;;31.70;22.95;;;11.40;99.90;;;;;;5015045;28;20105;-86
2022/09/22 04:57:49;;;;;;;20.48;17.35;;;11.50;99.90;;;;;;5015914;28;20045;-87
2022/09/22 05:00:16;;;;;;;21.92;17.23;;;11.50;99.90;;;;;;5016840;28;20033;-86
2022/09/22 05:02:42;;;;;;;30.08;19.42;;;11.60;99.90;;;;;;5016803;28;20395;-86
2022/09/22 05:05:08;;;;;;;19.88;16.48;;;11.60;99.90;;;;;;5025545;28;20026;-84
2022/09/22 05:07:34;;;;;;;24.38;18.80;;;11.60;99.90;;;;;;5020338;28;20376;-87
2022/09/22 05:10:00;;;;;;;17.60;13.20;;;11.60;99.90;;;;;;5014873;28;20033;-86
2022/09/22 05:12:26;;;;;;;27.55;19.25;;;11.60;99.90;;;;;;5022487;28;20029;-85
2022/09/22 05:14:52;;;;;;;25.20;19.63;;;11.60;99.90;;;;;;5013390;28;20058;-87
2022/09/22 05:17:18;;;;;;;18.50;15.13;;;11.50;99.90;;;;;;5021913;28;20029;-90
2022/09/22 05:19:45;;;;;;;17.45;14.32;;;11.60;99.90;;;;;;5042690;28;20503;-88
2022/09/22 05:22:11;;;;;;;20.70;16.88;;;11.60;99.90;;;;;;5019895;28;20022;-89
2022/09/22 05:24:37;;;;;;;21.30;16.35;;;11.60;99.90;;;;;;5026479;28;20026;-90
2022/09/22 05:27:04;;;;;;;22.02;17.50;;;11.70;99.90;;;;;;5023845;28;20495;-89
2022/09/22 05:29:30;;;;;;;21.42;17.27;;;11.80;99.90;;;;;;5019359;28;20067;-89
2022/09/22 05:31:56;;;;;;;23.10;17.88;;;11.90;99.90;;;;;;5024116;28;20456;-89
2022/09/22 05:34:22;;;;;;;19.92;16.75;;;12.00;99.90;;;;;;5021375;28;20018;-86
2022/09/22 05:36:47;;;;;;;20.35;16.73;;;12.10;99.90;;;;;;5020298;28;20025;-88
2022/09/22 05:39:13;;;;;;;20.92;16.58;;;12.20;99.90;;;;;;5021029;28;20026;-87
2022/09/22 05:41:39;;;;;;;22.38;17.85;;;12.30;99.90;;;;;;5034265;28;20077;-86
2022/09/22 05:44:05;;;;;;;25.33;18.85;;;12.40;99.90;;;;;;5020277;28;20022;-86
2022/09/22 05:46:31;;;;;;;26.88;21.80;;;12.50;99.90;;;;;;5015029;28;20029;-84
2022/09/22 05:48:57;;;;;;;22.20;18.00;;;12.50;99.90;;;;;;5019718;28;20030;-88
2022/09/22 05:51:24;;;;;;;19.23;16.80;;;12.50;99.90;;;;;;5036554;28;20102;-88
2022/09/22 05:53:51;;;;;;;26.60;16.58;;;12.50;99.90;;;;;;5033950;28;20022;-87
2022/09/22 05:56:17;;;;;;;19.17;16.35;;;12.40;99.90;;;;;;5022168;28;20509;-88
2022/09/22 05:58:43;;;;;;;31.20;22.70;;;12.40;99.90;;;;;;5017191;28;20034;-87
2022/09/22 06:01:08;;;;;;;24.90;18.85;;;12.30;99.90;;;;;;5018164;28;20536;-85
2022/09/22 06:03:34;;;;;;;26.58;19.10;;;12.20;99.90;;;;;;5016108;28;20022;-87
2022/09/22 06:06:00;;;;;;;21.48;17.75;;;12.10;99.90;;;;;;5017211;28;20037;-87
2022/09/22 06:08:26;;;;;;;23.52;17.98;;;12.10;99.90;;;;;;5018272;28;20035;-85
2022/09/22 06:10:52;;;;;;;20.80;17.10;;;12.10;99.90;;;;;;5015159;28;20703;-86
2022/09/22 06:13:18;;;;;;;21.80;17.33;;;12.00;99.90;;;;;;5019589;28;20025;-86
2022/09/22 06:15:47;;;;;;;24.95;17.73;;;11.90;99.90;;;;;;5020431;28;20538;-86
2022/09/22 06:18:16;;;;;;;20.70;15.65;;;11.80;99.90;;;;;;5019914;28;20029;-87
2022/09/22 06:20:43;;;;;;;19.50;15.52;;;11.70;99.90;;;;;;5017060;28;20098;-86
2022/09/22 06:23:11;;;;;;;21.33;17.58;;;11.60;99.90;;;;;;5009298;28;20018;-87
2022/09/22 06:25:37;;;;;;;19.10;15.07;;;11.50;99.90;;;;;;5014154;28;20026;-84
2022/09/22 06:28:09;;;;;;;22.42;16.67;;;11.60;99.90;;;;;;5023680;28;20049;-85
2022/09/22 06:30:38;;;;;;;24.05;17.17;;;11.70;99.90;;;;;;5024299;28;20048;-84
2022/09/22 06:33:05;;;;;;;23.10;16.58;;;11.80;99.90;;;;;;5016533;28;20036;-86
2022/09/22 06:35:36;;;;;;;22.98;15.30;;;11.90;99.90;;;;;;5021330;28;20084;-88
2022/09/22 06:38:06;;;;;;;22.17;17.23;;;11.90;99.90;;;;;;5020421;28;20022;-86
2022/09/22 06:40:36;;;;;;;24.15;18.02;;;12.00;99.90;;;;;;5014614;28;20102;-89
2022/09/22 06:43:10;;;;;;;25.88;16.98;;;12.10;99.90;;;;;;5024149;28;20033;-88
2022/09/22 06:45:37;;;;;;;26.98;20.63;;;12.30;99.90;;;;;;5022782;28;20033;-87
2022/09/22 06:48:03;;;;;;;24.75;18.33;;;12.20;99.90;;;;;;5026829;28;20167;-88
2022/09/22 06:50:31;;;;;;;22.92;17.98;;;12.20;99.90;;;;;;5020851;28;20030;-88
2022/09/22 06:52:59;;;;;;;;;;;12.20;99.90;;;;;;5021122;28;20481;-88
2022/09/22 06:55:26;;;;;;;25.25;19.33;;;12.20;99.90;;;;;;5020090;28;19936;-87
2022/09/22 06:57:52;;;;;;;26.10;18.30;;;12.20;99.90;;;;;;5020578;28;20026;-87
2022/09/22 07:00:18;;;;;;;24.05;19.00;;;12.30;99.90;;;;;;5021173;28;20030;-86
2022/09/22 07:02:48;;;;;;;25.40;20.63;;;12.30;99.90;;;;;;5019378;28;20026;-88
2022/09/22 07:05:18;;;;;;;21.60;17.65;;;12.40;99.90;;;;;;5019360;28;20026;-88
2022/09/22 07:07:44;;;;;;;28.23;20.25;;;12.40;99.90;;;;;;5022710;28;20107;-88
2022/09/22 07:10:10;;;;;;;23.50;19.40;;;12.30;99.90;;;;;;5019612;28;20190;-87
2022/09/22 07:12:36;;;;;;;33.63;21.80;;;12.20;99.90;;;;;;5036947;28;20061;-88
2022/09/22 07:15:03;;;;;;;29.45;21.73;;;12.20;99.90;;;;;;5030718;28;20017;-88
2022/09/22 07:17:30;;;;;;;35.30;22.80;;;12.40;99.90;;;;;;5030646;28;20128;-87
2022/09/22 07:19:56;;;;;;;;;;;12.80;99.90;;;;;;5023418;28;20086;-87
2022/09/22 07:22:22;;;;;;;28.02;19.58;;;13.10;99.90;;;;;;5036463;28;19951;-87
2022/09/22 07:24:51;;;;;;;31.23;23.45;;;13.20;99.90;;;;;;5038652;28;20030;-89
2022/09/22 07:27:24;;;;;;;30.83;23.23;;;13.00;99.90;;;;;;5018579;28;20048;-88
2022/09/22 07:29:53;;;;;;;32.67;23.90;;;13.00;99.90;;;;;;5020140;28;20479;-88
2022/09/22 07:32:26;;;;;;;35.85;23.20;;;13.10;99.90;;;;;;5021109;28;20140;-91
2022/09/22 07:34:52;;;;;;;29.05;19.85;;;13.10;99.90;;;;;;5021315;28;20029;-87
2022/09/22 07:37:19;;;;;;;26.63;21.02;;;13.20;99.90;;;;;;5021776;28;20014;-88
2022/09/22 07:39:45;;;;;;;25.63;20.17;;;13.10;99.90;;;;;;5005781;28;20030;-87
2022/09/22 07:42:11;;;;;;;27.17;21.88;;;13.00;99.90;;;;;;5035295;28;20064;-88
2022/09/22 07:48:34;;;;;;;25.75;20.38;;;12.90;99.90;;;;;;5023324;28;20029;-88
2022/09/22 07:50:10;;;;;;;22.30;17.58;;;12.80;99.90;;;;;;5007608;28;20084;-88
2022/09/22 07:52:39;;;;;;;30.77;21.45;;;12.70;99.90;;;;;;5019391;28;20029;-89
2022/09/22 07:55:12;;;;;;;25.92;18.98;;;12.50;99.90;;;;;;5021366;28;20118;-89
2022/09/22 07:57:41;;;;;;;24.52;18.70;;;12.50;99.90;;;;;;5019938;28;20021;-87
2022/09/22 08:00:07;;;;;;;25.20;18.83;;;12.40;99.90;;;;;;5021626;28;20025;-87
2022/09/22 08:02:36;;;;;;;23.35;17.48;;;12.40;99.90;;;;;;5022328;28;20022;-88
2022/09/22 08:05:02;;;;;;;27.80;18.73;;;12.50;99.90;;;;;;5019893;28;20017;-88
2022/09/22 08:07:35;;;;;;;22.98;18.23;;;12.50;99.90;;;;;;5021647;28;20168;-90
2022/09/22 08:10:01;;;;;;;19.33;15.00;;;12.60;99.90;;;;;;5017930;28;20030;-86
2022/09/22 08:12:27;;;;;;;18.45;15.55;;;12.70;99.90;;;;;;5021651;28;20036;-87
2022/09/22 08:14:54;;;;;;;21.52;16.70;;;12.80;99.90;;;;;;5019598;28;20484;-88
2022/09/22 08:17:20;;;;;;;22.80;16.08;;;12.80;99.90;;;;;;5009112;28;20025;-89
2022/09/22 08:19:46;;;;;;;27.20;18.50;;;12.80;99.90;;;;;;5024149;28;20565;-88
2022/09/22 08:22:12;;;;;;;21.83;16.50;;;12.80;99.90;;;;;;5020933;28;20026;-88
2022/09/22 08:24:43;;;;;;;22.52;16.23;;;12.70;99.90;;;;;;5022290;28;20033;-89
2022/09/22 08:27:08;;;;;;;27.98;18.20;;;12.60;99.90;;;;;;5021341;28;20018;-88
2022/09/22 08:29:35;;;;;;;25.58;16.58;;;12.50;99.90;;;;;;5017815;28;20028;-87
2022/09/22 08:32:01;;;;;;;22.65;17.13;;;12.60;99.90;;;;;;5019416;28;20037;-88
2022/09/22 08:34:34;;;;;;;20.08;16.48;;;12.70;99.90;;;;;;5021127;28;20021;-88
2022/09/22 08:37:03;;;;;;;24.88;17.75;;;12.90;99.90;;;;;;5024823;28;20078;-88
2022/09/22 08:39:29;;;;;;;23.25;17.30;;;13.00;99.90;;;;;;5023181;28;20030;-87
2022/09/22 08:42:29;;;;;;;21.45;16.67;;;13.10;99.90;;;;;;5017823;28;20046;-88
2022/09/22 08:45:11;;;;;;;28.40;17.50;;;13.20;99.90;;;;;;5004511;28;20034;-89
2022/09/22 08:53:47;;;;;;;20.63;17.15;;;13.40;99.90;;;;;;5013157;28;20065;-88
2022/09/22 08:56:43;;;;;;;22.95;19.55;;;13.10;99.90;;;;;;5021713;28;20022;-88
2022/09/22 08:59:13;;;;;;;27.52;20.58;;;12.90;99.90;;;;;;5022417;28;20030;-87
2022/09/22 09:02:20;;;;;;;35.90;20.25;;;12.70;99.90;;;;;;5037249;28;20056;-88
2022/09/22 09:05:18;;;;;;;32.13;18.63;;;12.70;99.90;;;;;;5021561;28;20026;-88
2022/09/22 09:08:08;;;;;;;23.13;17.08;;;12.70;99.90;;;;;;5000016;28;20089;-89
2022/09/22 09:10:54;;;;;;;25.10;18.25;;;12.80;99.90;;;;;;5000211;28;20054;-89
2022/09/22 09:13:47;;;;;;;27.40;18.45;;;12.80;99.90;;;;;;5000753;28;20056;-87
2022/09/22 09:16:29;;;;;;;26.80;21.55;;;12.90;99.90;;;;;;4984252;28;20413;-88
2022/09/22 09:19:26;;;;;;;26.38;20.23;;;12.90;99.90;;;;;;5002013;28;20189;-88
2022/09/22 09:21:56;;;;;;;27.17;19.40;;;12.80;99.90;;;;;;5001123;28;20023;-90
2022/09/22 09:24:33;;;;;;;21.67;17.65;;;12.80;99.90;;;;;;4986755;28;20030;-88
2022/09/22 09:27:24;;;;;;;21.08;17.23;;;12.80;99.90;;;;;;4989239;28;20034;-87
2022/09/22 09:30:18;;;;;;;28.50;20.17;;;12.90;99.90;;;;;;4996170;28;20021;-88
2022/09/22 09:32:58;;;;;;;26.00;20.25;;;12.80;99.90;;;;;;5000732;28;20042;-87
2022/09/22 09:35:48;;;;;;;22.33;19.20;;;12.80;99.90;;;;;;5003163;28;20030;-86
2022/09/22 09:38:16;;;;;;;23.52;19.90;;;13.00;99.90;;;;;;4987755;28;20031;-87
2022/09/22 09:40:53;;;;;;;23.13;17.08;;;13.30;99.70;;;;;;5001815;28;20042;-87
2022/09/22 09:43:22;;;;;;;26.15;20.50;;;13.60;98.80;;;;;;5000518;28;20050;-88
2022/09/22 09:46:06;;;;;;;27.13;20.67;;;13.90;98.60;;;;;;5031302;28;20014;-90
2022/09/22 09:48:32;;;;;;;19.58;15.85;;;14.40;97.80;;;;;;5028704;28;20018;-89
2022/09/22 09:51:04;;;;;;;22.83;18.17;;;15.10;96.70;;;;;;5030976;28;20061;-88
2022/09/22 09:53:33;;;;;;;32.38;19.42;;;15.10;94.80;;;;;;5009082;28;20433;-88
2022/09/22 09:55:59;;;;;;;25.23;18.35;;;14.70;95.00;;;;;;5011558;28;20034;-89
2022/09/22 10:01:14;;;;;;;19.17;16.60;;;14.00;96.10;;;;;;5018311;28;20045;-89
2022/09/22 10:03:46;;;;;;;20.27;16.00;;;13.80;96.30;;;;;;5016422;28;20013;-90
2022/09/22 10:06:13;;;;;;;19.20;16.02;;;13.60;96.70;;;;;;5017091;28;20030;-88
2022/09/22 10:08:44;;;;;;;18.25;15.23;;;13.60;96.70;;;;;;5016724;28;20040;-89
2022/09/22 10:11:13;;;;;;;25.25;15.27;;;13.60;96.60;;;;;;5021505;28;20442;-89
2022/09/22 10:13:41;;;;;;;20.88;16.38;;;13.80;96.70;;;;;;5007096;28;20010;-88
2022/09/22 10:16:22;;;;;;;21.95;15.23;;;14.00;96.40;;;;;;5018993;28;20149;-88
2022/09/22 10:19:01;;;;;;;16.00;14.05;;;14.30;95.90;;;;;;5020934;28;20140;-89
2022/09/22 10:21:27;;;;;;;22.00;15.57;;;14.40;95.20;;;;;;5031564;28;20037;-88
2022/09/22 10:23:55;;;;;;;24.00;14.88;;;14.50;94.80;;;;;;5029900;28;20065;-88
2022/09/22 10:26:25;;;;;;;23.52;14.82;;;14.50;94.30;;;;;;5030796;28;20045;-87
2022/09/22 10:29:16;;;;;;;17.05;13.10;;;14.30;94.60;;;;;;5019817;28;20026;-86
2022/09/22 10:32:11;;;;;;;16.17;13.05;;;14.20;95.00;;;;;;5018335;28;20065;-90
2022/09/22 10:34:40;;;;;;;15.43;13.23;;;14.20;94.90;;;;;;5005174;28;20018;-90
2022/09/22 10:37:10;;;;;;;13.55;11.18;;;14.30;94.60;;;;;;5019003;28;20025;-90
2022/09/22 10:39:43;;;;;;;13.60;11.75;;;14.30;94.00;;;;;;5016595;28;20022;-87
2022/09/22 10:42:24;;;;;;;14.85;11.57;;;14.30;94.10;;;;;;5035359;28;20057;-89
2022/09/22 10:44:52;;;;;;;15.95;13.50;;;14.20;93.70;;;;;;5025729;28;20030;-88
2022/09/22 10:47:26;;;;;;;;;;;14.00;94.30;;;;;;5038608;28;20112;-88
2022/09/22 10:50:10;;;;;;;17.33;14.00;;;14.00;94.40;;;;;;5021562;28;20065;-88
2022/09/22 10:52:55;;;;;;;16.85;13.00;;;13.80;94.30;;;;;;5039959;28;20033;-89
2022/09/22 10:55:33;;;;;;;15.55;13.10;;;13.70;94.90;;;;;;5043863;28;20015;-87
2022/09/22 10:58:09;;;;;;;15.35;13.20;;;13.70;95.20;;;;;;5026695;28;20036;-88
2022/09/22 11:00:40;;;;;;;17.58;13.55;;;13.80;95.20;;;;;;5025827;28;20064;-90
2022/09/22 11:03:23;;;;;;;20.80;12.77;;;13.90;95.10;;;;;;5043460;28;20041;-88
2022/09/22 11:12:18;;;;;;;14.98;12.40;;;13.60;95.40;;;;;;5044465;28;20040;-89
2022/09/22 11:14:44;;;;;;;16.42;13.13;;;13.60;95.40;;;;;;5026275;28;20124;-88
2022/09/22 11:17:10;;;;;;;13.70;10.40;;;13.60;95.50;;;;;;5049132;28;20033;-87
2022/09/22 11:20:00;;;;;;;15.57;11.20;;;13.60;95.00;;;;;;5036096;28;20021;-89
2022/09/22 11:22:38;;;;;;;12.30;10.48;;;13.60;95.00;;;;;;5023445;28;20021;-87
2022/09/22 11:25:22;;;;;;;;;;;13.70;94.80;;;;;;5027205;28;20022;-87
2022/09/22 11:28:03;;;;;;;13.30;10.27;;;13.70;94.80;;;;;;5024653;28;20187;-89
2022/09/22 11:30:39;;;;;;;11.50;9.93;;;13.70;94.80;;;;;;5024784;28;20089;-89
2022/09/22 11:33:25;;;;;;;14.20;11.05;;;13.90;94.40;;;;;;5043606;28;20080;-91
2022/09/22 11:35:57;;;;;;;20.60;12.02;;;13.90;94.30;;;;;;5017838;28;20114;-89
2022/09/22 11:38:52;;;;;;;16.25;10.98;;;14.10;94.30;;;;;;5039002;28;20025;-89
2022/09/22 11:41:56;;;;;;;14.40;10.48;;;14.20;94.20;;;;;;5045520;28;20049;-88
2022/09/22 11:44:37;;;;;;;15.35;10.88;;;14.40;94.20;;;;;;5044441;28;20024;-90
2022/09/22 11:47:09;;;;;;;9.63;8.63;;;14.40;93.40;;;;;;5034056;28;20021;-89
2022/09/22 11:50:12;;;;;;;13.98;9.27;;;14.40;93.30;;;;;;5031851;28;20033;-88
2022/09/22 11:52:47;;;;;;;22.17;10.45;;;14.30;93.30;;;;;;5044740;28;20045;-89
2022/09/22 11:55:28;;;;;;;17.13;9.77;;;14.30;93.60;;;;;;5042686;28;20033;-89
2022/09/22 11:57:59;;;;;;;18.63;10.77;;;14.30;93.40;;;;;;5028905;28;20116;-88
2022/09/22 12:00:33;;;;;;;19.52;10.30;;;14.40;93.50;;;;;;5036928;28;20029;-89
2022/09/22 12:03:11;;;;;;;19.45;10.38;;;14.40;93.50;;;;;;5026033;28;20117;-90
2022/09/22 12:05:42;;;;;;;9.27;8.38;;;14.50;93.30;;;;;;5024685;28;20108;-90
2022/09/22 12:08:15;;;;;;;13.90;8.80;;;14.40;93.10;;;;;;5021810;28;20013;-88
2022/09/22 12:10:44;;;;;;;10.90;9.45;;;14.30;93.50;;;;;;5014270;28;20443;-88
2022/09/22 12:13:14;;;;;;;18.73;10.38;;;14.30;93.60;;;;;;5041553;28;20172;-90
2022/09/22 12:16:08;;;;;;;12.45;8.32;;;14.20;93.60;;;;;;5039557;28;20048;-89
2022/09/22 12:18:48;;;;;;;13.85;8.07;;;14.20;93.70;;;;;;5041749;28;20502;-88
2022/09/22 12:21:29;;;;;;;10.77;9.07;;;14.10;93.60;;;;;;5034275;28;20021;-88
2022/09/22 12:24:01;;;;;;;12.82;8.68;;;14.10;93.30;;;;;;5042772;28;20022;-88
2022/09/22 12:26:39;;;;;;;11.32;7.95;;;14.00;93.30;;;;;;5043760;28;20013;-89
2022/09/22 12:29:23;;;;;;;11.55;9.02;;;14.00;93.10;;;;;;5028113;28;20071;-87
2022/09/22 12:32:00;;;;;;;21.45;11.85;;;13.90;93.40;;;;;;5032826;28;20052;-87
2022/09/22 12:34:55;;;;;;;20.50;9.43;;;14.10;93.60;;;;;;5046538;28;20018;-88
2022/09/22 12:37:31;;;;;;;13.23;9.18;;;14.20;93.60;;;;;;5022921;28;20032;-89
2022/09/22 12:40:13;;;;;;;13.13;9.02;;;14.30;93.40;;;;;;5023855;28;20117;-89
2022/09/22 12:42:47;;;;;;;11.98;9.50;;;14.40;93.00;;;;;;5025063;28;20096;-87
2022/09/22 12:45:58;;;;;;;16.98;9.65;;;14.50;92.80;;;;;;5043282;28;20025;-87
2022/09/22 12:48:31;;;;;;;11.48;7.95;;;14.50;92.40;;;;;;5010902;28;20038;-91
2022/09/22 12:51:24;;;;;;;19.10;9.57;;;14.40;92.30;;;;;;5026945;28;20154;-88
2022/09/22 12:54:10;;;;;;;13.23;8.77;;;14.30;92.60;;;;;;5023403;28;20018;-89
2022/09/22 12:56:47;;;;;;;10.07;7.20;;;14.30;92.50;;;;;;5024207;28;20025;-89
2022/09/22 12:59:35;;;;;;;9.57;8.52;;;14.20;92.20;;;;;;5044415;28;20082;-90
2022/09/22 13:02:14;;;;;;;9.68;8.30;;;14.10;92.30;;;;;;5031507;28;20025;-88
2022/09/22 13:05:00;;;;;;;18.83;9.38;;;14.10;92.90;;;;;;5042655;28;20022;-90
2022/09/22 13:07:35;;;;;;;10.43;8.18;;;14.00;92.90;;;;;;5046598;28;20016;-88
2022/09/22 13:10:22;;;;;;;9.50;8.20;;;14.10;92.60;;;;;;5054429;28;20022;-87
2022/09/22 13:13:09;;;;;;;16.27;9.65;;;14.10;92.80;;;;;;5044890;28;20022;-87
2022/09/22 13:15:44;;;;;;;17.85;9.20;;;14.20;92.90;;;;;;5031338;28;20029;-89